KFHU/FHU METAR and TAF weather

Enter ICAO airport designator
Station Type Date Time Source
KFHU METAR 2020/01/28 20:58 UTC NOAA

KFHU 282058Z AUTO 00000KT 10SM CLR 15/M10 A3013 RMK AO2 SLP170 T01521098 57028


Station Type Date Time Source
KFHU Decoded METAR 2020/01/28 20:58 UTC NOAA

Fort Huachuca, Libby AAF Ft Huachuca, AZ, United States (KFHU) 46-98N 110-20W
Jan 28, 2020 - 03:58 PM EST / 2020.01.28 2058 UTC
Wind: Calm:0
Visibility: 10 mile(s):0
Sky conditions: clear
Temperature: 59.4 F (15.2 C)
Dew Point: 14.4 F (-9.8 C)
Relative Humidity: 16%
Pressure (altimeter): 30.13 in. Hg (1020 hPa)
Pressure tendency: 0.08 inches (2.8 hPa) lower than three hours ago
ob: KFHU 282058Z AUTO 00000KT 10SM CLR 15/M10 A3013 RMK AO2 SLP170 T01521098 57028
cycle: 21

Station Type Date Time Source
KFHU TAF 2020/01/28 18:55 UTC NOAA

TAF COR KFHU 281834Z 2818/2924 VRB06KT 9999 SKC QNH2992INS
BECMG 2918/2919 25009KT 9999 SCT090 QNH2985INS TX15/2823Z TN00/2911Z

Example: see airport list